createdAt,value
2022-12-18T00:01:34.945Z,50.72
2022-12-18T00:04:09.445Z,51.23
2022-12-18T00:06:38.933Z,50.58
2022-12-18T00:09:07.125Z,51.04
2022-12-18T00:11:35.369Z,51.77
2022-12-18T00:14:03.473Z,51.46
2022-12-18T00:16:33.978Z,50.96
2022-12-18T00:21:56.375Z,51.06
2022-12-18T00:24:24.500Z,51.43
2022-12-18T00:26:52.547Z,51.59
2022-12-18T00:29:21.056Z,51.37
2022-12-18T00:31:49.930Z,51.58
2022-12-18T00:34:18.443Z,51.10
2022-12-18T00:36:49.326Z,50.92
2022-12-18T00:39:18.711Z,51.10
2022-12-18T00:42:04.547Z,51.30
2022-12-18T00:44:33.247Z,51.02
2022-12-18T00:47:01.337Z,50.66
2022-12-18T00:49:29.382Z,50.54
2022-12-18T00:51:57.437Z,51.16
2022-12-18T00:54:27.243Z,51.64
2022-12-18T00:56:56.113Z,51.33
2022-12-18T00:59:24.226Z,50.96
2022-12-18T01:01:52.603Z,50.72
2022-12-18T01:04:22.166Z,50.77
2022-12-18T01:06:51.150Z,51.01
2022-12-18T01:09:19.329Z,51.35
2022-12-18T01:11:48.701Z,51.78
2022-12-18T01:14:16.883Z,51.15
2022-12-18T01:16:45.011Z,52.05
2022-12-18T01:19:13.563Z,52.29
2022-12-18T01:21:41.634Z,52.81
2022-12-18T01:24:09.832Z,53.06
2022-12-18T01:26:37.945Z,52.51
2022-12-18T01:29:07.462Z,51.99
2022-12-18T01:31:36.283Z,52.03
2022-12-18T01:36:59.324Z,51.97
2022-12-18T01:39:27.814Z,51.88
2022-12-18T01:42:05.338Z,51.77
2022-12-18T01:45:00.047Z,52.19
2022-12-18T01:47:34.258Z,51.87
2022-12-18T01:50:06.327Z,52.62
2022-12-18T01:52:35.691Z,52.65
2022-12-18T01:55:06.987Z,53.17
2022-12-18T01:57:37.649Z,52.60
2022-12-18T02:00:11.473Z,53.15
2022-12-18T02:02:44.992Z,54.25
2022-12-18T02:05:18.460Z,54.38
2022-12-18T02:08:00.322Z,53.79
2022-12-18T02:10:34.277Z,53.44
2022-12-18T02:13:10.565Z,53.90
2022-12-18T02:15:48.877Z,54.01
2022-12-18T02:18:21.806Z,53.91
2022-12-18T02:20:57.892Z,53.39
2022-12-18T02:23:45.574Z,53.43
2022-12-18T02:26:21.237Z,53.52
2022-12-18T02:28:56.858Z,52.53
2022-12-18T02:31:29.403Z,52.63
2022-12-18T02:34:04.339Z,52.24
2022-12-18T02:36:41.375Z,52.66
2022-12-18T02:39:14.318Z,52.48
2022-12-18T02:41:52.615Z,52.72
2022-12-18T02:44:22.235Z,52.48
2022-12-18T02:46:53.761Z,52.89
2022-12-18T02:49:36.914Z,52.98
2022-12-18T02:52:37.004Z,52.81
2022-12-18T02:58:57.783Z,53.63
2022-12-18T03:01:41.142Z,53.32
2022-12-18T03:04:16.995Z,52.69
2022-12-18T03:06:49.542Z,53.06
2022-12-18T03:09:23.244Z,52.98
2022-12-18T03:12:18.147Z,52.94
2022-12-18T03:14:51.993Z,53.55
2022-12-18T03:17:24.206Z,53.77
2022-12-18T03:19:55.387Z,53.19
2022-12-18T03:22:26.275Z,53.78
2022-12-18T03:24:58.008Z,54.45
2022-12-18T03:27:28.172Z,54.97
2022-12-18T03:30:08.385Z,55.16
2022-12-18T03:32:45.119Z,55.16
2022-12-18T03:35:18.503Z,55.59
2022-12-18T03:37:46.853Z,56.02
2022-12-18T03:40:15.261Z,55.67
2022-12-18T03:42:51.252Z,56.57
2022-12-18T03:45:29.305Z,55.95
2022-12-18T03:48:06.239Z,55.62
2022-12-18T03:50:47.326Z,56.20
2022-12-18T03:53:28.458Z,55.26
2022-12-18T03:55:58.884Z,55.49
2022-12-18T03:58:34.908Z,55.95
2022-12-18T04:01:18.496Z,55.50
2022-12-18T04:03:50.469Z,55.49
2022-12-18T04:06:21.033Z,55.46
2022-12-18T04:08:49.783Z,55.70
2022-12-18T04:11:22.344Z,55.75
2022-12-18T04:13:50.514Z,55.78
2022-12-18T04:16:26.274Z,55.57
2022-12-18T04:18:57.764Z,55.50
2022-12-18T04:21:27.551Z,55.85
2022-12-18T04:23:55.696Z,55.91
2022-12-18T04:26:25.158Z,55.35
2022-12-18T04:29:03.069Z,55.02
2022-12-18T04:31:32.759Z,55.26
2022-12-18T04:34:01.051Z,55.06
2022-12-18T04:36:29.919Z,56.03
2022-12-18T04:38:58.012Z,55.76
2022-12-18T04:41:26.669Z,55.88
2022-12-18T04:43:55.801Z,56.44
2022-12-18T04:46:23.918Z,56.81
2022-12-18T04:48:53.353Z,56.72
2022-12-18T04:51:26.433Z,57.18
2022-12-18T04:53:55.297Z,57.59
2022-12-18T04:56:23.892Z,56.84
2022-12-18T04:58:52.034Z,57.38
2022-12-18T05:01:20.817Z,57.78
2022-12-18T05:03:49.064Z,57.50
2022-12-18T05:06:18.601Z,57.74
2022-12-18T05:08:46.716Z,57.92
2022-12-18T05:11:17.519Z,58.34
2022-12-18T05:13:46.157Z,58.13
2022-12-18T05:16:15.950Z,58.62
2022-12-18T05:18:44.795Z,58.74
2022-12-18T05:21:12.942Z,58.95
2022-12-18T05:23:42.912Z,59.31
2022-12-18T05:26:18.538Z,59.86
2022-12-18T05:28:46.840Z,59.82
2022-12-18T05:31:15.106Z,59.52
2022-12-18T05:33:43.895Z,59.14
2022-12-18T05:36:13.060Z,58.95
2022-12-18T05:38:43.343Z,58.92
2022-12-18T05:41:12.054Z,59.39
2022-12-18T05:43:42.098Z,59.62
2022-12-18T05:46:14.930Z,59.91
2022-12-18T05:48:43.106Z,59.80
2022-12-18T05:51:13.866Z,59.67
2022-12-18T05:53:44.548Z,61.00
2022-12-18T05:56:15.609Z,60.09
2022-12-18T05:58:43.855Z,59.81
2022-12-18T06:01:16.008Z,59.96
2022-12-18T06:03:44.956Z,60.17
2022-12-18T06:06:18.862Z,60.68
2022-12-18T06:08:48.658Z,60.33
2022-12-18T06:11:21.095Z,60.25
2022-12-18T06:13:57.859Z,60.18
2022-12-18T06:16:27.220Z,59.49
2022-12-18T06:18:57.605Z,59.79
2022-12-18T06:21:25.780Z,59.97
2022-12-18T06:23:55.166Z,59.58
2022-12-18T06:26:28.054Z,59.86
2022-12-18T06:28:56.908Z,60.14
2022-12-18T06:31:25.793Z,59.85
2022-12-18T06:33:54.091Z,59.17
2022-12-18T06:36:22.646Z,59.32
2022-12-18T06:38:50.911Z,59.34
2022-12-18T06:41:23.041Z,59.37
2022-12-18T06:43:53.546Z,58.97
2022-12-18T06:46:23.793Z,58.52
2022-12-18T06:48:53.724Z,58.65
2022-12-18T06:51:23.570Z,58.69
2022-12-18T06:53:52.061Z,58.44
2022-12-18T06:56:21.621Z,57.75
2022-12-18T06:58:52.945Z,57.91
2022-12-18T07:01:21.231Z,58.10
2022-12-18T07:03:53.285Z,57.94
2022-12-18T07:06:25.200Z,57.96
2022-12-18T07:08:55.256Z,57.26
2022-12-18T07:11:24.790Z,56.97
2022-12-18T07:13:54.663Z,57.21
2022-12-18T07:16:25.575Z,57.32
2022-12-18T07:18:54.581Z,56.35
2022-12-18T07:21:23.762Z,56.66
2022-12-18T07:23:52.253Z,56.55
2022-12-18T07:26:22.809Z,57.03
2022-12-18T07:28:52.746Z,56.96
2022-12-18T07:31:23.585Z,57.31
2022-12-18T07:33:53.002Z,57.29
2022-12-18T07:36:25.106Z,57.53
2022-12-18T07:38:53.914Z,56.94
2022-12-18T07:41:22.671Z,57.36
2022-12-18T07:43:52.168Z,57.27
2022-12-18T07:46:20.581Z,57.00
2022-12-18T07:48:49.797Z,56.73
2022-12-18T07:51:19.520Z,56.54
2022-12-18T07:53:49.756Z,57.11
2022-12-18T07:56:29.622Z,56.93
2022-12-18T07:59:01.255Z,56.72
2022-12-18T08:01:29.676Z,56.22
2022-12-18T08:03:59.044Z,56.07
2022-12-18T08:06:27.541Z,56.31
2022-12-18T08:08:56.688Z,56.03
2022-12-18T08:11:26.910Z,56.28
2022-12-18T08:13:55.342Z,55.93
2022-12-18T08:16:26.169Z,55.89
2022-12-18T08:18:55.700Z,55.75
2022-12-18T08:21:27.241Z,55.95
2022-12-18T08:23:57.596Z,55.82
2022-12-18T08:26:27.879Z,56.28
2022-12-18T08:28:56.679Z,56.17
2022-12-18T08:31:27.928Z,56.45
2022-12-18T08:33:56.690Z,56.18
2022-12-18T08:36:25.488Z,56.35
2022-12-18T08:38:54.674Z,56.68
2022-12-18T08:41:23.467Z,57.42
2022-12-18T08:44:09.335Z,57.35
2022-12-18T08:46:41.643Z,57.73
2022-12-18T08:49:11.103Z,58.32
2022-12-18T08:51:39.970Z,58.00
2022-12-18T08:54:08.825Z,58.47
2022-12-18T08:56:37.101Z,57.61
2022-12-18T08:59:05.857Z,57.65
2022-12-18T09:01:36.605Z,58.22
2022-12-18T09:04:07.602Z,56.98
2022-12-18T09:06:36.578Z,57.60
2022-12-18T09:09:06.565Z,57.69
2022-12-18T09:11:36.189Z,56.77
2022-12-18T09:14:04.402Z,56.88
2022-12-18T09:16:35.765Z,56.69
2022-12-18T09:19:06.665Z,56.88
2022-12-18T09:21:37.395Z,56.61
2022-12-18T09:24:09.134Z,56.61
2022-12-18T09:26:37.736Z,55.95
2022-12-18T09:29:08.009Z,55.63
2022-12-18T09:31:36.911Z,55.20
2022-12-18T09:34:11.632Z,55.28
2022-12-18T09:36:40.339Z,55.97
2022-12-18T09:39:09.067Z,55.44
2022-12-18T09:41:47.813Z,55.49
2022-12-18T09:44:32.518Z,55.98
2022-12-18T09:47:12.763Z,56.26
2022-12-18T09:49:45.876Z,54.91
2022-12-18T09:52:21.525Z,54.88
2022-12-18T09:54:55.522Z,56.24
2022-12-18T09:57:26.526Z,55.27
2022-12-18T09:59:59.011Z,55.35
2022-12-18T10:02:32.155Z,54.79
2022-12-18T10:05:09.897Z,54.76
2022-12-18T10:07:57.375Z,55.04
2022-12-18T10:10:44.957Z,54.96
2022-12-18T10:13:26.962Z,54.50
2022-12-18T10:16:10.648Z,54.68
2022-12-18T10:19:03.568Z,54.93
2022-12-18T10:21:43.382Z,54.77
2022-12-18T10:24:25.594Z,54.80
2022-12-18T10:26:57.745Z,55.28
2022-12-18T10:29:27.646Z,54.77
2022-12-18T10:31:55.685Z,55.07
2022-12-18T10:34:23.708Z,54.82
2022-12-18T10:36:53.546Z,55.56
2022-12-18T10:39:24.249Z,55.19
2022-12-18T10:41:52.660Z,55.19
2022-12-18T10:44:23.405Z,54.50
2022-12-18T10:46:56.931Z,54.26
2022-12-18T10:49:28.077Z,54.47
2022-12-18T10:52:16.035Z,54.98
2022-12-18T10:54:53.394Z,54.62
2022-12-18T10:57:36.615Z,53.76
2022-12-18T11:00:26.793Z,54.03
2022-12-18T11:02:56.616Z,54.72
2022-12-18T11:05:30.032Z,54.72
2022-12-18T11:08:00.646Z,53.89
2022-12-18T11:10:34.001Z,54.87
2022-12-18T11:13:18.681Z,54.65
2022-12-18T11:15:47.974Z,54.55
2022-12-18T11:18:23.907Z,54.36
2022-12-18T11:20:58.950Z,54.48
2022-12-18T11:23:29.629Z,54.04
2022-12-18T11:26:01.417Z,54.86
2022-12-18T11:28:37.762Z,54.49
2022-12-18T11:31:24.330Z,54.90
2022-12-18T11:34:27.945Z,54.33
2022-12-18T11:36:55.280Z,54.20
2022-12-18T11:39:40.195Z,53.64
2022-12-18T11:42:16.390Z,53.44
2022-12-18T11:44:50.704Z,54.14
2022-12-18T11:47:31.239Z,54.01
2022-12-18T11:50:04.102Z,53.83
2022-12-18T11:52:38.167Z,53.89
2022-12-18T11:55:16.125Z,53.52
2022-12-18T11:57:55.126Z,53.27
2022-12-18T12:00:24.515Z,53.63
2022-12-18T12:03:24.414Z,53.11
2022-12-18T12:06:10.069Z,53.41
2022-12-18T12:08:58.298Z,53.55
2022-12-18T12:11:38.863Z,53.01
2022-12-18T12:14:25.425Z,53.03
2022-12-18T12:16:59.272Z,52.60
2022-12-18T12:19:40.248Z,52.45
2022-12-18T12:22:19.603Z,52.44
2022-12-18T12:25:04.670Z,52.62
2022-12-18T12:27:45.003Z,52.28
2022-12-18T12:30:21.782Z,52.48
2022-12-18T12:33:09.663Z,52.56
2022-12-18T12:35:51.160Z,53.23
2022-12-18T12:38:26.273Z,52.65
2022-12-18T12:41:03.218Z,53.50
2022-12-18T12:43:46.248Z,52.63
2022-12-18T12:46:22.705Z,53.25
2022-12-18T12:48:54.989Z,53.70
2022-12-18T12:51:26.984Z,53.50
2022-12-18T12:53:58.409Z,53.22
2022-12-18T12:56:40.651Z,53.55
2022-12-18T12:59:19.132Z,54.41
2022-12-18T13:01:56.825Z,54.09
2022-12-18T13:07:37.912Z,53.91
2022-12-18T13:10:33.037Z,54.15
2022-12-18T13:13:02.750Z,54.36
2022-12-18T13:15:40.262Z,54.13
2022-12-18T13:18:21.721Z,54.62
2022-12-18T13:20:56.433Z,54.33
2022-12-18T13:23:37.281Z,54.79
2022-12-18T13:26:35.115Z,55.12
2022-12-18T13:29:05.288Z,54.83
2022-12-18T13:32:23.344Z,55.09
2022-12-18T13:35:43.250Z,55.23
2022-12-18T13:38:24.069Z,55.20
2022-12-18T13:40:58.376Z,55.44
2022-12-18T13:43:38.010Z,55.05
2022-12-18T13:46:23.614Z,55.01
2022-12-18T13:49:01.232Z,55.25
2022-12-18T13:51:31.701Z,55.51
2022-12-18T13:54:03.283Z,55.49
2022-12-18T13:56:34.369Z,55.25
2022-12-18T13:59:14.829Z,55.70
2022-12-18T14:01:49.826Z,55.90
2022-12-18T14:04:31.426Z,55.81
2022-12-18T14:07:05.603Z,55.90
2022-12-18T14:09:40.539Z,55.59
2022-12-18T14:12:36.766Z,55.28
2022-12-18T14:15:15.264Z,56.37
2022-12-18T14:17:44.882Z,55.81
2022-12-18T14:20:17.797Z,55.82
2022-12-18T14:22:47.613Z,55.67
2022-12-18T14:25:23.086Z,55.68
2022-12-18T14:27:55.680Z,56.04
2022-12-18T14:30:32.892Z,55.42
2022-12-18T14:33:06.162Z,56.17
2022-12-18T14:35:38.561Z,55.62
2022-12-18T14:38:27.617Z,55.89
2022-12-18T14:40:58.740Z,56.23
2022-12-18T14:43:27.892Z,56.77
2022-12-18T14:45:57.007Z,56.24
2022-12-18T14:48:38.586Z,55.64
2022-12-18T14:51:18.558Z,56.09
2022-12-18T14:53:54.316Z,55.72
2022-12-18T14:56:25.948Z,56.03
2022-12-18T14:58:57.851Z,56.15
2022-12-18T15:01:32.574Z,56.10
2022-12-18T15:04:08.191Z,56.17
2022-12-18T15:06:40.813Z,56.41
2022-12-18T15:09:25.693Z,56.09
2022-12-18T15:11:59.645Z,56.27
2022-12-18T15:14:37.688Z,56.79
2022-12-18T15:17:08.786Z,55.86
2022-12-18T15:19:42.434Z,56.33
2022-12-18T15:22:23.755Z,56.88
2022-12-18T15:24:52.319Z,56.64
2022-12-18T15:27:27.865Z,57.33
2022-12-18T15:30:26.012Z,56.89
2022-12-18T15:33:14.856Z,57.28
2022-12-18T15:35:46.923Z,57.49
2022-12-18T15:38:17.205Z,56.94
2022-12-18T15:40:45.260Z,57.59
2022-12-18T15:43:30.979Z,57.13
2022-12-18T15:45:59.062Z,57.58
2022-12-18T15:48:27.153Z,57.60
2022-12-18T15:50:59.456Z,57.80
2022-12-18T15:53:34.583Z,57.40
2022-12-18T15:56:20.394Z,57.77
2022-12-18T15:58:48.676Z,57.87
2022-12-18T16:01:18.146Z,57.33
2022-12-18T16:03:46.568Z,57.97
2022-12-18T16:06:14.636Z,57.47
2022-12-18T16:08:44.045Z,57.29
2022-12-18T16:11:39.197Z,57.81
2022-12-18T16:14:17.584Z,58.05
2022-12-18T16:16:46.431Z,57.14
2022-12-18T16:19:14.513Z,57.34
2022-12-18T16:21:42.673Z,57.29
2022-12-18T16:24:21.553Z,57.71
2022-12-18T16:26:52.180Z,57.61
2022-12-18T16:29:27.742Z,57.45
2022-12-18T16:31:56.219Z,57.28
2022-12-18T16:34:28.571Z,57.96
2022-12-18T16:37:04.646Z,57.35
2022-12-18T16:39:35.583Z,58.16
2022-12-18T16:42:05.806Z,58.43
2022-12-18T16:44:34.753Z,57.80
2022-12-18T16:47:04.561Z,57.16
2022-12-18T16:49:33.382Z,57.62
2022-12-18T16:52:05.073Z,57.58
2022-12-18T16:54:35.117Z,58.34
2022-12-18T16:57:03.481Z,58.26
2022-12-18T16:59:31.989Z,57.30
2022-12-18T17:02:00.326Z,58.14
2022-12-18T17:04:28.582Z,57.56
2022-12-18T17:06:56.701Z,57.89
2022-12-18T17:09:25.985Z,57.60
2022-12-18T17:11:56.382Z,57.64
2022-12-18T17:14:25.904Z,57.77
2022-12-18T17:17:19.820Z,57.82
2022-12-18T17:19:42.599Z,58.07
2022-12-18T17:22:10.661Z,57.34
2022-12-18T17:24:38.772Z,58.73
2022-12-18T17:27:08.849Z,58.77
2022-12-18T17:29:40.091Z,57.68
2022-12-18T17:32:11.847Z,58.32
2022-12-18T17:34:41.893Z,58.40
2022-12-18T17:37:10.353Z,57.51
2022-12-18T17:39:38.679Z,58.10
2022-12-18T17:42:10.607Z,57.51
2022-12-18T17:44:43.409Z,57.58
2022-12-18T17:47:12.838Z,57.88
2022-12-18T17:49:41.064Z,58.15
2022-12-18T17:52:09.780Z,57.29
2022-12-18T17:54:41.286Z,57.62
2022-12-18T17:57:11.622Z,57.44
2022-12-18T17:59:39.740Z,57.48
2022-12-18T18:02:08.647Z,58.66
2022-12-18T18:04:37.088Z,58.66
2022-12-18T18:07:05.184Z,58.17
2022-12-18T18:09:33.340Z,58.26
2022-12-18T18:12:18.801Z,58.58
2022-12-18T18:14:48.241Z,58.03
2022-12-18T18:17:16.366Z,57.89
2022-12-18T18:19:49.593Z,58.08
2022-12-18T18:22:18.709Z,57.52
2022-12-18T18:24:47.791Z,58.30
2022-12-18T18:27:16.713Z,58.00
2022-12-18T18:29:44.955Z,58.18
2022-12-18T18:32:14.372Z,59.61
2022-12-18T18:34:42.712Z,58.33
2022-12-18T18:37:12.132Z,59.50
2022-12-18T18:39:40.642Z,59.28
2022-12-18T18:42:08.783Z,58.37
2022-12-18T18:44:36.955Z,58.93
2022-12-18T18:47:07.665Z,58.35
2022-12-18T18:49:38.932Z,58.63
2022-12-18T18:52:08.106Z,58.18
2022-12-18T18:54:37.093Z,58.35
2022-12-18T18:57:23.392Z,58.68
2022-12-18T18:59:53.311Z,58.54
2022-12-18T19:02:21.562Z,59.46
2022-12-18T19:04:51.118Z,58.78
2022-12-18T19:07:29.448Z,58.89
2022-12-18T19:10:03.519Z,59.36
2022-12-18T19:12:52.459Z,59.33
2022-12-18T19:15:21.573Z,59.22
2022-12-18T19:17:49.867Z,58.71
2022-12-18T19:20:19.785Z,58.78
2022-12-18T19:22:54.948Z,59.07
2022-12-18T19:25:40.460Z,59.59
2022-12-18T19:28:22.132Z,59.50
2022-12-18T19:30:55.369Z,59.54
2022-12-18T19:33:45.034Z,59.40
2022-12-18T19:36:20.199Z,59.46
2022-12-18T19:38:48.883Z,58.97
2022-12-18T19:41:18.841Z,59.49
2022-12-18T19:43:48.354Z,59.45
2022-12-18T19:46:19.324Z,59.56
2022-12-18T19:48:49.177Z,59.52
2022-12-18T19:51:22.312Z,58.92
2022-12-18T19:53:57.856Z,59.33
2022-12-18T19:56:30.899Z,59.46
2022-12-18T19:58:59.526Z,59.55
2022-12-18T20:01:29.224Z,59.63
2022-12-18T20:03:58.826Z,59.44
2022-12-18T20:06:31.484Z,59.27
2022-12-18T20:09:02.229Z,59.21
2022-12-18T20:11:31.009Z,59.58
2022-12-18T20:14:02.678Z,59.51
2022-12-18T20:16:30.952Z,59.76
2022-12-18T20:19:00.090Z,59.80
2022-12-18T20:21:29.793Z,59.92
2022-12-18T20:23:59.877Z,60.24
2022-12-18T20:26:28.530Z,59.57
2022-12-18T20:28:57.098Z,60.25
2022-12-18T20:31:26.937Z,59.76
2022-12-18T20:34:00.340Z,60.24
2022-12-18T20:36:33.024Z,60.19
2022-12-18T20:39:03.852Z,59.64
2022-12-18T20:41:33.518Z,59.69
2022-12-18T20:44:18.004Z,59.76
2022-12-18T20:46:54.385Z,60.02
2022-12-18T20:49:23.684Z,59.35
2022-12-18T20:51:56.331Z,58.48
2022-12-18T20:54:28.159Z,56.70
2022-12-18T20:56:56.976Z,56.03
2022-12-18T20:59:26.160Z,54.76
2022-12-18T21:01:54.705Z,54.57
2022-12-18T21:04:23.391Z,53.97
2022-12-18T21:07:01.902Z,55.04
2022-12-18T21:09:37.457Z,54.98
2022-12-18T21:12:29.729Z,55.73
2022-12-18T21:15:02.390Z,56.23
2022-12-18T21:17:30.515Z,56.91
2022-12-18T21:20:02.846Z,56.58
2022-12-18T21:22:32.505Z,57.32
2022-12-18T21:25:00.554Z,57.46
2022-12-18T21:27:28.663Z,57.52
2022-12-18T21:29:56.808Z,57.77
2022-12-18T21:32:25.005Z,57.96
2022-12-18T21:34:57.202Z,58.20
2022-12-18T21:37:25.245Z,58.19
2022-12-18T21:39:54.719Z,58.23
2022-12-18T21:42:40.263Z,58.60
2022-12-18T21:45:12.096Z,58.70
2022-12-18T21:47:40.158Z,58.75
2022-12-18T21:50:09.080Z,58.59
2022-12-18T21:52:37.548Z,58.49
2022-12-18T21:55:10.165Z,58.98
2022-12-18T21:57:42.485Z,59.15
2022-12-18T22:00:18.654Z,58.79
2022-12-18T22:02:59.926Z,59.19
2022-12-18T22:05:36.314Z,58.94
2022-12-18T22:08:04.571Z,59.23
2022-12-18T22:10:34.708Z,59.35
2022-12-18T22:13:02.915Z,59.23
2022-12-18T22:15:31.106Z,59.19
2022-12-18T22:17:59.762Z,59.62
2022-12-18T22:20:29.815Z,59.30
2022-12-18T22:22:58.558Z,59.50
2022-12-18T22:25:26.801Z,59.25
2022-12-18T22:28:13.599Z,59.21
2022-12-18T22:30:41.770Z,59.71
2022-12-18T22:33:09.877Z,59.89
2022-12-18T22:35:37.963Z,59.47
2022-12-18T22:38:06.564Z,59.78
2022-12-18T22:40:34.865Z,59.52
2022-12-18T22:43:04.536Z,59.83
2022-12-18T22:45:32.673Z,60.03
2022-12-18T22:48:03.743Z,60.03
2022-12-18T22:50:33.620Z,59.56
2022-12-18T22:53:01.677Z,60.04
2022-12-18T22:55:29.742Z,59.71
2022-12-18T22:57:57.847Z,60.12
2022-12-18T23:00:27.591Z,59.55
2022-12-18T23:03:00.446Z,60.04
2022-12-18T23:05:31.107Z,60.57
2022-12-18T23:08:00.045Z,60.70
2022-12-18T23:10:54.038Z,59.83
2022-12-18T23:13:22.147Z,59.83
2022-12-18T23:15:51.605Z,59.88
2022-12-18T23:18:19.679Z,59.98
2022-12-18T23:20:48.417Z,60.19
2022-12-18T23:23:16.959Z,59.66
2022-12-18T23:25:45.074Z,60.08
2022-12-18T23:28:14.583Z,60.00
2022-12-18T23:30:42.631Z,60.06
2022-12-18T23:33:12.005Z,60.15
2022-12-18T23:35:40.445Z,60.20
2022-12-18T23:38:08.496Z,60.17
2022-12-18T23:40:36.565Z,60.34
2022-12-18T23:43:04.648Z,60.49
2022-12-18T23:45:32.665Z,60.57
2022-12-18T23:48:00.806Z,60.03
2022-12-18T23:50:30.377Z,60.63
2022-12-18T23:53:05.118Z,61.02
2022-12-18T23:55:45.568Z,61.16
2022-12-18T23:58:19.849Z,61.01
